createdAt,value
2023-01-19T00:03:02.410Z,81.85
2023-01-19T00:06:08.484Z,81.80
2023-01-19T00:09:13.461Z,81.94
2023-01-19T00:12:16.265Z,81.71
2023-01-19T00:15:19.114Z,81.58
2023-01-19T00:18:21.944Z,81.57
2023-01-19T00:21:24.771Z,81.14
2023-01-19T00:24:27.544Z,81.23
2023-01-19T00:27:36.857Z,81.41
2023-01-19T00:30:40.576Z,81.30
2023-01-19T00:33:43.451Z,81.41
2023-01-19T00:36:46.212Z,81.35
2023-01-19T00:39:48.976Z,81.38
2023-01-19T00:42:54.103Z,81.46
2023-01-19T00:45:58.187Z,81.55
2023-01-19T00:49:01.220Z,81.49
2023-01-19T00:52:04.491Z,81.57
2023-01-19T00:55:09.310Z,81.55
2023-01-19T00:58:12.187Z,81.51
2023-01-19T01:01:15.205Z,81.49
2023-01-19T01:04:18.172Z,81.66
2023-01-19T01:07:24.916Z,81.65
2023-01-19T01:10:29.756Z,81.66
2023-01-19T01:13:32.918Z,81.56
2023-01-19T01:16:36.184Z,81.67
2023-01-19T01:19:38.991Z,81.72
2023-01-19T01:22:45.441Z,81.74
2023-01-19T01:25:48.580Z,81.77
2023-01-19T01:28:53.476Z,81.73
2023-01-19T01:31:56.292Z,82.06
2023-01-19T01:34:59.439Z,81.72
2023-01-19T01:38:04.022Z,81.78
2023-01-19T01:41:10.559Z,81.73
2023-01-19T01:44:50.427Z,82.04
2023-01-19T01:48:02.886Z,82.10
2023-01-19T01:51:27.251Z,81.93
2023-01-19T01:54:33.531Z,82.15
2023-01-19T01:57:41.674Z,81.77
2023-01-19T02:01:03.584Z,81.96
2023-01-19T02:04:06.720Z,81.71
2023-01-19T02:07:35.938Z,81.92
2023-01-19T02:10:59.684Z,82.00
2023-01-19T02:14:05.586Z,81.96
2023-01-19T02:17:08.347Z,82.06
2023-01-19T02:20:11.906Z,81.89
2023-01-19T02:23:41.027Z,82.03
2023-01-19T02:26:47.532Z,82.01
2023-01-19T02:29:50.280Z,81.93
2023-01-19T02:32:53.388Z,81.99
2023-01-19T02:35:57.161Z,82.04
2023-01-19T02:39:02.155Z,81.90
2023-01-19T02:42:19.932Z,82.12
2023-01-19T02:45:26.320Z,81.98
2023-01-19T02:48:29.510Z,82.06
2023-01-19T02:51:33.966Z,82.01
2023-01-19T02:54:42.953Z,81.93
2023-01-19T02:58:01.335Z,82.06
2023-01-19T03:01:05.379Z,82.18
2023-01-19T03:04:33.605Z,82.04
2023-01-19T03:08:03.711Z,82.22
2023-01-19T03:11:10.029Z,82.12
2023-01-19T03:14:19.968Z,82.03
2023-01-19T03:17:22.963Z,81.73
2023-01-19T03:20:29.034Z,81.98
2023-01-19T03:23:33.946Z,81.89
2023-01-19T03:26:41.406Z,81.66
2023-01-19T03:29:52.840Z,81.50
2023-01-19T03:33:04.842Z,80.86
2023-01-19T03:36:16.932Z,81.27
2023-01-19T03:39:25.130Z,81.18
2023-01-19T03:42:29.225Z,81.64
2023-01-19T03:45:35.639Z,81.95
2023-01-19T03:48:39.143Z,82.07
2023-01-19T03:51:42.365Z,82.17
2023-01-19T03:54:45.246Z,82.11
2023-01-19T03:57:48.080Z,82.31
2023-01-19T04:00:51.373Z,82.25
2023-01-19T04:03:54.497Z,82.15
2023-01-19T04:06:57.816Z,82.04
2023-01-19T04:10:00.623Z,82.08
2023-01-19T04:13:04.545Z,81.99
2023-01-19T04:16:08.141Z,81.96
2023-01-19T04:19:11.285Z,81.80
2023-01-19T04:22:14.065Z,82.02
2023-01-19T04:25:16.991Z,81.93
2023-01-19T04:28:19.837Z,82.09
2023-01-19T04:31:24.556Z,81.97
2023-01-19T04:34:27.446Z,81.73
2023-01-19T04:37:30.403Z,81.71
2023-01-19T04:40:33.189Z,81.83
2023-01-19T04:43:35.970Z,81.91
2023-01-19T04:46:38.745Z,81.85
2023-01-19T04:49:41.545Z,81.85
2023-01-19T04:52:44.343Z,81.83
2023-01-19T04:55:47.139Z,81.92
2023-01-19T04:58:49.860Z,81.87
2023-01-19T05:01:53.298Z,81.62
2023-01-19T05:04:56.425Z,81.78
2023-01-19T05:08:01.281Z,81.47
2023-01-19T05:11:04.128Z,81.66
2023-01-19T05:14:07.345Z,81.60
2023-01-19T05:17:10.545Z,81.62
2023-01-19T05:20:16.219Z,81.65
2023-01-19T05:23:19.387Z,81.80
2023-01-19T05:26:22.199Z,81.66
2023-01-19T05:29:25.305Z,81.91
2023-01-19T05:32:28.018Z,81.72
2023-01-19T05:35:36.127Z,81.71
2023-01-19T05:38:40.826Z,81.82
2023-01-19T05:41:45.539Z,81.64
2023-01-19T05:44:48.588Z,81.85
2023-01-19T05:47:51.330Z,81.82
2023-01-19T05:50:58.310Z,81.92
2023-01-19T05:54:02.410Z,81.91
2023-01-19T05:57:05.177Z,81.92
2023-01-19T06:00:08.977Z,81.79
2023-01-19T06:03:12.661Z,81.67
2023-01-19T06:06:15.863Z,81.82
2023-01-19T06:09:20.959Z,81.98
2023-01-19T06:12:24.401Z,82.21
2023-01-19T06:15:27.160Z,81.98
2023-01-19T06:18:30.160Z,81.82
2023-01-19T06:21:34.423Z,81.99
2023-01-19T06:24:37.143Z,82.01
2023-01-19T06:27:47.498Z,81.93
2023-01-19T06:30:52.272Z,82.04
2023-01-19T06:33:55.183Z,82.09
2023-01-19T06:37:01.281Z,81.96
2023-01-19T06:40:04.718Z,81.89
2023-01-19T06:43:08.072Z,81.89
2023-01-19T06:46:10.902Z,81.84
2023-01-19T06:49:13.643Z,81.68
2023-01-19T06:52:17.572Z,81.72
2023-01-19T06:55:20.455Z,82.03
2023-01-19T06:58:23.180Z,82.10
2023-01-19T07:01:27.084Z,82.21
2023-01-19T07:04:31.211Z,82.35
2023-01-19T07:07:33.967Z,82.20
2023-01-19T07:11:26.404Z,82.20
2023-01-19T07:14:00.476Z,82.18
2023-01-19T07:17:04.524Z,82.14
2023-01-19T07:20:09.400Z,82.22
2023-01-19T07:23:12.338Z,82.03
2023-01-19T07:26:18.624Z,82.16
2023-01-19T07:29:21.407Z,82.21
2023-01-19T07:32:27.204Z,82.07
2023-01-19T07:35:29.991Z,82.05
2023-01-19T07:38:32.897Z,82.08
2023-01-19T07:41:35.678Z,82.04
2023-01-19T07:44:41.895Z,82.03
2023-01-19T07:47:45.528Z,81.68
2023-01-19T07:50:48.559Z,81.81
2023-01-19T07:53:51.889Z,82.07
2023-01-19T07:56:55.287Z,82.02
2023-01-19T07:59:58.082Z,81.97
2023-01-19T08:03:02.219Z,81.84
2023-01-19T08:06:07.004Z,81.83
2023-01-19T08:09:10.148Z,81.38
2023-01-19T08:12:12.947Z,81.89
2023-01-19T08:15:16.330Z,81.83
2023-01-19T08:18:22.714Z,81.96
2023-01-19T08:21:25.561Z,81.91
2023-01-19T08:24:29.199Z,82.46
2023-01-19T08:27:34.597Z,82.88
2023-01-19T08:30:38.674Z,82.95
2023-01-19T08:33:43.062Z,82.91
2023-01-19T08:36:47.182Z,82.77
2023-01-19T08:39:50.053Z,82.82
2023-01-19T08:42:52.767Z,82.79
2023-01-19T08:45:56.588Z,82.75
2023-01-19T08:49:06.859Z,82.38
2023-01-19T08:52:11.640Z,82.59
2023-01-19T08:55:14.463Z,82.51
2023-01-19T08:58:18.718Z,82.51
2023-01-19T09:01:22.359Z,82.55
2023-01-19T09:04:25.294Z,82.75
2023-01-19T09:07:30.564Z,82.59
2023-01-19T09:10:37.827Z,82.67
2023-01-19T09:13:43.760Z,82.70
2023-01-19T09:16:46.711Z,82.87
2023-01-19T09:19:51.035Z,82.86
2023-01-19T09:22:59.041Z,82.84
2023-01-19T09:26:03.529Z,82.79
2023-01-19T09:29:06.499Z,82.82
2023-01-19T09:32:11.486Z,82.86
2023-01-19T09:35:15.295Z,82.83
2023-01-19T09:38:19.020Z,82.67
2023-01-19T09:41:23.074Z,82.87
2023-01-19T09:44:29.529Z,82.79
2023-01-19T09:47:37.221Z,82.71
2023-01-19T09:50:46.734Z,82.47
2023-01-19T09:54:54.491Z,82.43
2023-01-19T09:57:57.348Z,82.59
2023-01-19T10:01:18.458Z,82.40
2023-01-19T10:04:29.203Z,82.23
2023-01-19T10:07:56.266Z,82.35
2023-01-19T10:10:59.350Z,82.19
2023-01-19T10:14:11.173Z,82.28
2023-01-19T10:17:35.780Z,82.25
2023-01-19T10:21:01.360Z,82.39
2023-01-19T10:24:38.665Z,82.34
2023-01-19T10:27:43.109Z,82.23
2023-01-19T10:30:47.910Z,82.24
2023-01-19T10:33:54.475Z,82.28
2023-01-19T10:37:04.306Z,82.20
2023-01-19T10:40:12.267Z,82.26
2023-01-19T10:43:36.616Z,82.30
2023-01-19T10:46:47.336Z,81.90
2023-01-19T10:49:50.602Z,82.12
2023-01-19T10:52:56.393Z,82.16
2023-01-19T10:56:23.306Z,81.91
2023-01-19T10:59:38.558Z,82.19
2023-01-19T11:02:50.267Z,82.06
2023-01-19T11:05:53.964Z,82.14
2023-01-19T11:09:10.403Z,82.47
2023-01-19T11:12:25.699Z,82.28
2023-01-19T11:15:32.948Z,82.24
2023-01-19T11:18:38.229Z,82.32
2023-01-19T11:21:40.965Z,82.28
2023-01-19T11:24:44.658Z,82.42
2023-01-19T11:27:52.173Z,82.61
2023-01-19T11:31:16.546Z,82.32
2023-01-19T11:34:22.337Z,82.06
2023-01-19T11:37:34.537Z,82.34
2023-01-19T11:40:38.386Z,82.55
2023-01-19T11:43:48.917Z,82.69
2023-01-19T11:47:12.431Z,82.75
2023-01-19T11:50:23.695Z,82.53
2023-01-19T11:53:33.280Z,82.65
2023-01-19T11:56:36.677Z,82.72
2023-01-19T11:59:39.656Z,82.93
2023-01-19T12:02:45.906Z,82.73
2023-01-19T12:05:55.507Z,82.89
2023-01-19T12:09:10.648Z,82.84
2023-01-19T12:12:31.231Z,82.55
2023-01-19T12:15:41.990Z,82.63
2023-01-19T12:18:54.492Z,82.35
2023-01-19T12:21:57.646Z,82.65
2023-01-19T12:25:18.545Z,82.92
2023-01-19T12:28:27.515Z,82.76
2023-01-19T12:31:30.432Z,82.84
2023-01-19T12:34:47.129Z,82.35
2023-01-19T12:37:49.912Z,82.61
2023-01-19T12:41:15.536Z,82.63
2023-01-19T12:44:24.587Z,82.81
2023-01-19T12:47:30.477Z,82.64
2023-01-19T12:50:39.667Z,82.72
2023-01-19T12:53:53.331Z,82.38
2023-01-19T12:57:01.244Z,82.78
2023-01-19T13:00:26.930Z,82.39
2023-01-19T13:03:29.651Z,82.89
2023-01-19T13:06:51.573Z,82.73
2023-01-19T13:09:54.360Z,83.12
2023-01-19T13:13:17.183Z,83.08
2023-01-19T13:16:20.422Z,82.89
2023-01-19T13:19:35.100Z,83.00
2023-01-19T13:22:49.607Z,83.06
2023-01-19T13:26:03.892Z,82.92
2023-01-19T13:29:28.009Z,82.96
2023-01-19T13:32:31.043Z,82.85
2023-01-19T13:35:34.172Z,82.89
2023-01-19T13:38:37.191Z,82.82
2023-01-19T13:41:41.152Z,82.64
2023-01-19T13:44:54.897Z,82.74
2023-01-19T13:48:00.983Z,82.71
2023-01-19T13:51:17.667Z,82.88
2023-01-19T13:54:21.429Z,82.81
2023-01-19T13:57:28.376Z,82.76
2023-01-19T14:00:31.132Z,82.60
2023-01-19T14:03:34.029Z,82.67
2023-01-19T14:06:42.874Z,82.53
2023-01-19T14:09:45.733Z,82.19
2023-01-19T14:13:13.848Z,82.41
2023-01-19T14:16:20.480Z,82.94
2023-01-19T14:19:23.800Z,82.86
2023-01-19T14:22:44.969Z,82.81
2023-01-19T14:25:47.761Z,82.69
2023-01-19T14:28:50.598Z,82.59
2023-01-19T14:32:19.764Z,82.65
2023-01-19T14:35:25.759Z,82.73
2023-01-19T14:38:28.819Z,82.65
2023-01-19T14:41:44.088Z,82.76
2023-01-19T14:44:52.663Z,82.63
2023-01-19T14:48:05.094Z,82.68
2023-01-19T14:51:08.048Z,82.57
2023-01-19T14:54:24.176Z,82.64
2023-01-19T14:57:27.028Z,82.49
2023-01-19T15:00:29.797Z,82.37
2023-01-19T15:03:44.211Z,82.32
2023-01-19T15:06:48.540Z,82.62
2023-01-19T15:09:52.341Z,82.40
2023-01-19T15:12:56.096Z,82.63
2023-01-19T15:15:59.050Z,82.82
2023-01-19T15:19:01.855Z,82.52
2023-01-19T15:22:11.423Z,82.76
2023-01-19T15:25:21.165Z,82.58
2023-01-19T15:28:24.543Z,82.37
2023-01-19T15:31:27.658Z,82.43
2023-01-19T15:34:30.624Z,82.41
2023-01-19T15:37:33.858Z,82.36
2023-01-19T15:40:36.652Z,82.35
2023-01-19T15:43:39.446Z,82.61
2023-01-19T15:46:44.633Z,82.60
2023-01-19T15:49:47.462Z,82.58
2023-01-19T15:52:50.253Z,82.53
2023-01-19T15:55:57.240Z,82.43
2023-01-19T15:59:01.953Z,82.54
2023-01-19T16:02:05.908Z,82.51
2023-01-19T16:05:11.393Z,82.43
2023-01-19T16:08:17.361Z,82.37
2023-01-19T16:11:20.284Z,82.30
2023-01-19T16:14:23.011Z,82.26
2023-01-19T16:17:27.361Z,82.23
2023-01-19T16:20:30.262Z,82.25
2023-01-19T16:23:34.573Z,82.14
2023-01-19T16:26:37.349Z,82.50
2023-01-19T16:29:40.114Z,82.60
2023-01-19T16:32:42.890Z,82.52
2023-01-19T16:35:45.685Z,82.50
2023-01-19T16:38:48.788Z,82.41
2023-01-19T16:41:51.632Z,82.33
2023-01-19T16:44:54.656Z,82.37
2023-01-19T16:47:59.153Z,82.17
2023-01-19T16:51:06.206Z,82.19
2023-01-19T16:54:13.701Z,82.48
2023-01-19T16:57:16.821Z,82.54
2023-01-19T17:00:21.957Z,82.40
2023-01-19T17:03:24.991Z,82.29
2023-01-19T17:06:30.194Z,81.94
2023-01-19T17:09:34.063Z,81.51
2023-01-19T17:12:36.965Z,81.12
2023-01-19T17:15:39.818Z,81.15
2023-01-19T17:18:42.635Z,81.23
2023-01-19T17:21:48.665Z,81.01
2023-01-19T17:24:51.377Z,81.00
2023-01-19T17:27:54.138Z,80.81
2023-01-19T17:30:57.225Z,80.90
2023-01-19T17:34:00.896Z,80.87
2023-01-19T17:37:03.792Z,80.64
2023-01-19T17:40:07.341Z,80.72
2023-01-19T17:43:10.160Z,80.61
2023-01-19T17:46:13.827Z,80.59
2023-01-19T17:49:16.599Z,80.57
2023-01-19T17:52:20.135Z,80.74
2023-01-19T17:55:22.948Z,80.65
2023-01-19T17:58:26.327Z,80.48
2023-01-19T18:01:31.838Z,80.86
2023-01-19T18:04:38.061Z,81.13
2023-01-19T18:07:40.959Z,81.15
2023-01-19T18:10:43.835Z,81.22
2023-01-19T18:13:48.561Z,81.04
2023-01-19T18:16:51.316Z,80.92
2023-01-19T18:19:54.818Z,81.06
2023-01-19T18:22:59.868Z,81.18
2023-01-19T18:26:08.135Z,81.38
2023-01-19T18:29:11.111Z,81.33
2023-01-19T18:32:13.867Z,81.47
2023-01-19T18:35:16.618Z,81.60
2023-01-19T18:38:22.579Z,81.75
2023-01-19T18:41:25.367Z,81.94
2023-01-19T18:44:28.387Z,81.96
2023-01-19T18:47:32.870Z,82.05
2023-01-19T18:50:37.211Z,82.06
2023-01-19T18:53:40.715Z,82.22
2023-01-19T18:56:46.135Z,82.41
2023-01-19T18:59:49.096Z,82.31
2023-01-19T19:02:54.157Z,82.25
2023-01-19T19:05:59.883Z,82.20
2023-01-19T19:09:03.421Z,82.47
2023-01-19T19:12:06.461Z,82.54
2023-01-19T19:15:10.093Z,82.38
2023-01-19T19:18:16.420Z,82.71
2023-01-19T19:21:21.348Z,82.61
2023-01-19T19:24:26.691Z,82.72
2023-01-19T19:27:29.524Z,82.93
2023-01-19T19:30:34.520Z,82.77
2023-01-19T19:33:38.591Z,82.84
2023-01-19T19:36:42.178Z,82.54
2023-01-19T19:39:45.017Z,82.67
2023-01-19T19:42:47.833Z,82.63
2023-01-19T19:46:00.690Z,82.58
2023-01-19T19:49:03.518Z,82.82
2023-01-19T19:52:06.335Z,82.88
2023-01-19T19:55:11.260Z,82.73
2023-01-19T19:58:14.139Z,82.74
2023-01-19T20:01:19.879Z,82.73
2023-01-19T20:04:24.453Z,82.86
2023-01-19T20:07:27.342Z,82.62
2023-01-19T20:10:30.052Z,83.07
2023-01-19T20:13:34.842Z,83.03
2023-01-19T20:16:38.339Z,82.92
2023-01-19T20:19:41.136Z,82.82
2023-01-19T20:22:43.972Z,83.04
2023-01-19T20:25:49.020Z,82.73
2023-01-19T20:28:55.063Z,82.90
2023-01-19T20:31:58.140Z,82.67
2023-01-19T20:35:01.016Z,82.74
2023-01-19T20:38:03.762Z,82.63
2023-01-19T20:41:09.018Z,82.72
2023-01-19T20:44:17.207Z,82.65
2023-01-19T20:47:20.302Z,82.44
2023-01-19T20:50:23.075Z,82.73
2023-01-19T20:53:26.316Z,82.81
2023-01-19T20:56:29.107Z,82.67
2023-01-19T20:59:34.121Z,82.76
2023-01-19T21:02:36.928Z,82.69
2023-01-19T21:05:39.794Z,82.95
2023-01-19T21:08:43.313Z,82.88
2023-01-19T21:11:46.161Z,82.69
2023-01-19T21:14:48.914Z,82.97
2023-01-19T21:17:53.714Z,82.81
2023-01-19T21:20:57.662Z,82.88
2023-01-19T21:24:01.869Z,82.83
2023-01-19T21:27:04.672Z,82.54
2023-01-19T21:30:11.142Z,82.64
2023-01-19T21:33:16.809Z,82.74
2023-01-19T21:36:21.443Z,82.51
2023-01-19T21:39:24.540Z,82.64
2023-01-19T21:42:27.268Z,82.48
2023-01-19T21:45:30.166Z,82.56
2023-01-19T21:48:33.025Z,82.62
2023-01-19T21:51:37.068Z,82.83
2023-01-19T21:54:39.888Z,82.61
2023-01-19T21:57:42.970Z,82.69
2023-01-19T22:00:45.886Z,82.73
2023-01-19T22:03:49.011Z,82.61
2023-01-19T22:06:51.807Z,82.73
2023-01-19T22:09:54.683Z,82.34
2023-01-19T22:12:57.457Z,82.55
2023-01-19T22:16:01.947Z,82.50
2023-01-19T22:19:07.353Z,82.48
2023-01-19T22:22:10.160Z,82.72
2023-01-19T22:25:13.082Z,82.62
2023-01-19T22:28:15.891Z,82.49
2023-01-19T22:31:19.409Z,82.21
2023-01-19T22:34:22.247Z,82.15
2023-01-19T22:37:24.972Z,82.06
2023-01-19T22:40:27.744Z,82.15
2023-01-19T22:43:30.543Z,81.99
2023-01-19T22:46:35.793Z,81.89
2023-01-19T22:49:38.537Z,81.85
2023-01-19T22:52:42.497Z,81.85
2023-01-19T22:55:45.201Z,82.03
2023-01-19T22:58:48.909Z,82.22
2023-01-19T23:01:52.320Z,82.36
2023-01-19T23:04:55.208Z,82.46
2023-01-19T23:07:57.958Z,82.15
2023-01-19T23:11:09.116Z,82.13
2023-01-19T23:14:17.672Z,81.77
2023-01-19T23:17:20.423Z,81.74
2023-01-19T23:20:23.174Z,82.10
2023-01-19T23:23:26.922Z,81.78
2023-01-19T23:26:30.915Z,81.63
2023-01-19T23:29:33.772Z,81.94
2023-01-19T23:32:36.552Z,81.98
2023-01-19T23:35:39.428Z,81.84
2023-01-19T23:38:42.797Z,82.02
2023-01-19T23:41:46.315Z,81.97
2023-01-19T23:44:49.088Z,82.23
2023-01-19T23:47:51.824Z,82.19
2023-01-19T23:50:54.653Z,82.24
2023-01-19T23:53:58.724Z,82.30
2023-01-19T23:57:04.045Z,81.96
